createdAt,value
2022-12-16T00:00:50.941Z,17.60
2022-12-16T00:01:53.954Z,17.85
2022-12-16T00:03:00.464Z,18.20
2022-12-16T00:04:03.477Z,16.90
2022-12-16T00:05:06.294Z,18.33
2022-12-16T00:06:10.505Z,17.83
2022-12-16T00:07:12.420Z,17.20
2022-12-16T00:08:15.357Z,16.77
2022-12-16T00:09:17.692Z,17.88
2022-12-16T00:10:21.969Z,17.50
2022-12-16T00:11:25.085Z,17.25
2022-12-16T00:12:27.159Z,18.75
2022-12-16T00:13:32.460Z,17.63
2022-12-16T00:14:34.705Z,18.42
2022-12-16T00:15:38.854Z,18.58
2022-12-16T00:16:41.953Z,16.08
2022-12-16T00:17:43.946Z,19.85
2022-12-16T00:18:48.174Z,17.98
2022-12-16T00:19:50.156Z,17.98
2022-12-16T00:20:55.255Z,17.20
2022-12-16T00:21:57.266Z,17.73
2022-12-16T00:23:00.190Z,17.17
2022-12-16T00:24:02.127Z,18.23
2022-12-16T00:25:05.597Z,18.13
2022-12-16T00:26:09.648Z,18.33
2022-12-16T00:27:12.728Z,17.23
2022-12-16T00:28:16.410Z,19.25
2022-12-16T00:29:20.139Z,18.40
2022-12-16T00:30:22.088Z,17.45
2022-12-16T00:31:25.436Z,19.42
2022-12-16T00:32:27.436Z,19.30
2022-12-16T00:33:30.835Z,16.75
2022-12-16T00:34:33.312Z,18.70
2022-12-16T00:35:36.340Z,19.85
2022-12-16T00:36:39.228Z,17.70
2022-12-16T00:37:41.173Z,16.95
2022-12-16T00:38:44.137Z,17.58
2022-12-16T00:39:46.095Z,17.48
2022-12-16T00:40:49.084Z,17.83
2022-12-16T00:41:53.369Z,17.35
2022-12-16T00:42:56.857Z,16.13
2022-12-16T00:43:59.837Z,17.42
2022-12-16T00:45:01.847Z,18.52
2022-12-16T00:46:05.138Z,18.30
2022-12-16T00:47:07.130Z,18.67
2022-12-16T00:48:10.168Z,19.05
2022-12-16T00:49:12.106Z,16.75
2022-12-16T00:50:15.068Z,17.67
2022-12-16T00:51:16.977Z,19.05
2022-12-16T00:52:19.888Z,18.65
2022-12-16T00:53:23.062Z,16.33
2022-12-16T00:54:26.029Z,18.23
2022-12-16T00:55:28.016Z,18.80
2022-12-16T00:56:30.942Z,17.38
2022-12-16T00:57:34.312Z,16.98
2022-12-16T00:58:37.908Z,19.23
2022-12-16T00:59:40.804Z,17.05
2022-12-16T01:00:42.920Z,19.63
2022-12-16T01:01:46.051Z,17.80
2022-12-16T01:02:49.364Z,19.77
2022-12-16T01:03:52.392Z,17.88
2022-12-16T01:04:54.382Z,18.00
2022-12-16T01:05:57.730Z,18.65
2022-12-16T01:06:59.701Z,19.63
2022-12-16T01:08:02.742Z,19.02
2022-12-16T01:09:04.848Z,18.33
2022-12-16T01:10:09.461Z,19.15
2022-12-16T01:11:11.421Z,19.83
2022-12-16T01:12:14.327Z,17.60
2022-12-16T01:13:17.919Z,19.00
2022-12-16T01:14:20.904Z,18.00
2022-12-16T01:15:22.871Z,18.10
2022-12-16T01:16:26.078Z,17.75
2022-12-16T01:17:28.196Z,19.17
2022-12-16T01:18:31.512Z,17.65
2022-12-16T01:19:33.500Z,18.33
2022-12-16T01:20:36.428Z,18.67
2022-12-16T01:21:38.825Z,18.88
2022-12-16T01:22:42.556Z,18.50
2022-12-16T01:23:44.549Z,19.27
2022-12-16T01:24:47.595Z,19.60
2022-12-16T01:25:52.920Z,17.80
2022-12-16T01:26:56.069Z,17.70
2022-12-16T01:27:57.992Z,19.05
2022-12-16T01:29:02.300Z,17.85
2022-12-16T01:30:05.079Z,18.35
2022-12-16T01:31:08.206Z,19.02
2022-12-16T01:32:14.121Z,19.02
2022-12-16T01:33:18.096Z,20.00
2022-12-16T01:34:20.096Z,18.02
2022-12-16T01:35:52.240Z,19.98
2022-12-16T01:36:45.998Z,19.77
2022-12-16T01:37:48.076Z,19.30
2022-12-16T01:38:51.392Z,17.95
2022-12-16T01:39:53.999Z,20.60
2022-12-16T01:40:57.280Z,17.55
2022-12-16T01:41:59.234Z,18.45
2022-12-16T01:43:02.155Z,18.73
2022-12-16T01:44:20.315Z,18.40
2022-12-16T01:45:32.976Z,19.63
2022-12-16T01:46:38.571Z,19.85
2022-12-16T01:47:40.594Z,19.20
2022-12-16T01:48:47.991Z,19.95
2022-12-16T01:49:53.478Z,17.75
2022-12-16T01:51:03.758Z,19.50
2022-12-16T01:52:09.549Z,18.08
2022-12-16T01:53:12.546Z,19.80
2022-12-16T01:54:19.542Z,18.52
2022-12-16T01:55:24.708Z,17.83
2022-12-16T01:56:31.068Z,17.95
2022-12-16T01:57:37.905Z,19.58
2022-12-16T01:58:42.834Z,18.65
2022-12-16T01:59:48.937Z,19.35
2022-12-16T02:00:52.064Z,19.42
2022-12-16T02:01:57.368Z,18.73
2022-12-16T02:03:01.455Z,17.48
2022-12-16T02:04:05.382Z,18.20
2022-12-16T02:05:22.922Z,18.58
2022-12-16T02:06:25.980Z,17.67
2022-12-16T02:07:28.001Z,18.90
2022-12-16T02:08:31.067Z,19.52
2022-12-16T02:09:33.061Z,18.75
2022-12-16T02:10:48.438Z,20.02
2022-12-16T02:12:14.428Z,18.85
2022-12-16T02:13:26.391Z,19.77
2022-12-16T02:15:02.412Z,18.65
2022-12-16T02:16:13.927Z,16.85
2022-12-16T02:17:25.610Z,20.35
2022-12-16T02:18:38.291Z,17.30
2022-12-16T02:20:29.010Z,19.55
2022-12-16T02:21:51.970Z,18.25
2022-12-16T02:23:16.834Z,19.08
2022-12-16T02:25:03.172Z,18.35
2022-12-16T02:26:38.676Z,17.73
2022-12-16T02:27:52.524Z,19.05
2022-12-16T02:29:20.825Z,17.33
2022-12-16T02:30:47.471Z,18.30
2022-12-16T02:31:55.980Z,20.00
2022-12-16T02:33:10.205Z,17.10
2022-12-16T02:34:22.173Z,18.17
2022-12-16T02:35:31.354Z,19.02
2022-12-16T02:36:51.993Z,18.48
2022-12-16T02:38:12.801Z,18.38
2022-12-16T02:40:56.058Z,18.58
2022-12-16T02:42:03.536Z,17.75
2022-12-16T02:43:12.330Z,18.30
2022-12-16T02:44:16.401Z,16.90
2022-12-16T02:45:21.705Z,19.95
2022-12-16T02:46:28.692Z,18.85
2022-12-16T02:47:32.965Z,19.08
2022-12-16T02:48:34.932Z,18.30
2022-12-16T02:49:48.233Z,20.30
2022-12-16T02:50:51.632Z,17.52
2022-12-16T02:51:55.800Z,18.58
2022-12-16T02:52:58.876Z,19.00
2022-12-16T02:54:01.960Z,18.33
2022-12-16T02:55:08.997Z,17.20
2022-12-16T02:56:25.060Z,17.58
2022-12-16T02:57:49.544Z,18.77
2022-12-16T02:58:58.191Z,19.05
2022-12-16T03:00:04.910Z,18.48
2022-12-16T03:01:13.604Z,18.27
2022-12-16T03:02:25.691Z,16.60
2022-12-16T03:03:35.739Z,16.85
2022-12-16T03:04:44.288Z,16.77
2022-12-16T03:05:48.678Z,17.52
2022-12-16T03:06:54.154Z,18.50
2022-12-16T03:08:00.418Z,18.55
2022-12-16T03:09:07.608Z,17.23
2022-12-16T03:10:14.494Z,18.80
2022-12-16T03:11:17.444Z,17.45
2022-12-16T03:12:21.911Z,18.05
2022-12-16T03:13:26.219Z,20.08
2022-12-16T03:14:31.735Z,18.50
2022-12-16T03:15:36.011Z,16.05
2022-12-16T03:16:38.229Z,18.90
2022-12-16T03:17:43.781Z,18.15
2022-12-16T03:18:51.365Z,18.83
2022-12-16T03:20:10.450Z,17.13
2022-12-16T03:21:15.230Z,18.40
2022-12-16T03:22:21.991Z,17.23
2022-12-16T03:23:29.637Z,16.80
2022-12-16T03:24:32.542Z,17.17
2022-12-16T03:25:38.144Z,16.38
2022-12-16T03:26:49.056Z,17.10
2022-12-16T03:27:57.573Z,16.50
2022-12-16T03:29:04.655Z,15.02
2022-12-16T03:30:13.312Z,19.55
2022-12-16T03:31:25.691Z,16.27
2022-12-16T03:32:34.197Z,17.45
2022-12-16T03:33:41.911Z,17.92
2022-12-16T03:34:48.940Z,17.95
2022-12-16T03:35:56.573Z,17.38
2022-12-16T03:37:02.283Z,16.83
2022-12-16T03:38:07.640Z,17.63
2022-12-16T03:39:10.440Z,17.58
2022-12-16T03:40:14.713Z,18.58
2022-12-16T03:41:18.692Z,17.38
2022-12-16T03:42:21.656Z,18.23
2022-12-16T03:43:24.232Z,17.48
2022-12-16T03:44:27.801Z,16.98
2022-12-16T03:45:35.732Z,18.23
2022-12-16T03:46:38.807Z,18.35
2022-12-16T03:47:41.000Z,17.63
2022-12-16T03:48:50.261Z,17.13
2022-12-16T03:49:52.319Z,19.02
2022-12-16T03:50:55.578Z,16.60
2022-12-16T03:51:57.537Z,16.85
2022-12-16T03:53:00.591Z,17.60
2022-12-16T03:54:02.557Z,18.50
2022-12-16T03:55:05.968Z,17.95
2022-12-16T03:56:08.478Z,19.05
2022-12-16T03:57:15.344Z,19.02
2022-12-16T03:58:17.855Z,16.80
2022-12-16T03:59:21.037Z,18.30
2022-12-16T04:00:23.776Z,18.58
2022-12-16T04:01:26.977Z,16.80
2022-12-16T04:02:29.129Z,17.90
2022-12-16T04:03:32.599Z,17.08
2022-12-16T04:04:36.116Z,17.70
2022-12-16T04:05:39.193Z,18.08
2022-12-16T04:06:41.140Z,17.55
2022-12-16T04:07:44.096Z,18.08
2022-12-16T04:08:48.309Z,18.58
2022-12-16T04:09:51.414Z,18.88
2022-12-16T04:11:12.541Z,17.33
2022-12-16T04:12:32.982Z,18.08
2022-12-16T04:13:53.468Z,17.00
2022-12-16T04:15:13.975Z,16.58
2022-12-16T04:16:35.992Z,19.20
2022-12-16T04:17:56.545Z,19.52
2022-12-16T04:19:17.203Z,17.73
2022-12-16T04:20:42.111Z,17.20
2022-12-16T04:22:02.600Z,17.27
2022-12-16T04:23:23.845Z,16.73
2022-12-16T04:24:30.804Z,18.50
2022-12-16T04:25:36.335Z,16.70
2022-12-16T04:26:53.136Z,17.25
2022-12-16T04:27:58.637Z,18.33
2022-12-16T04:29:00.607Z,18.27
2022-12-16T04:30:21.934Z,17.70
2022-12-16T04:31:24.075Z,17.70
2022-12-16T04:32:27.296Z,17.27
2022-12-16T04:33:48.164Z,19.63
2022-12-16T04:34:51.632Z,18.08
2022-12-16T04:36:13.168Z,17.60
2022-12-16T04:37:33.777Z,17.00
2022-12-16T04:38:54.240Z,18.17
2022-12-16T04:40:14.888Z,17.63
2022-12-16T04:41:35.331Z,17.08
2022-12-16T04:42:55.801Z,17.13
2022-12-16T04:44:16.299Z,17.08
2022-12-16T04:45:37.328Z,16.88
2022-12-16T04:46:57.825Z,19.52
2022-12-16T04:48:18.306Z,19.33
2022-12-16T04:49:38.860Z,18.75
2022-12-16T04:50:59.381Z,19.55
2022-12-16T04:52:21.184Z,16.35
2022-12-16T04:53:41.748Z,17.60
2022-12-16T04:55:02.155Z,17.60
2022-12-16T04:56:23.109Z,18.58
2022-12-16T04:57:43.663Z,17.83
2022-12-16T04:59:04.128Z,17.95
2022-12-16T05:00:25.824Z,17.52
2022-12-16T05:01:46.649Z,18.85
2022-12-16T05:03:07.617Z,17.77
2022-12-16T05:04:27.892Z,17.95
2022-12-16T05:05:59.676Z,16.30
2022-12-16T05:07:21.396Z,17.30
2022-12-16T05:08:41.792Z,16.95
2022-12-16T05:10:02.394Z,18.52
2022-12-16T05:11:23.390Z,17.40
2022-12-16T05:12:43.833Z,15.30
2022-12-16T05:14:04.420Z,18.58
2022-12-16T05:15:25.661Z,17.30
2022-12-16T05:16:46.144Z,17.83
2022-12-16T05:18:06.637Z,17.42
2022-12-16T05:19:31.648Z,16.90
2022-12-16T05:20:52.435Z,16.95
2022-12-16T05:22:09.220Z,16.73
2022-12-16T05:23:31.158Z,16.33
2022-12-16T05:24:57.193Z,17.83
2022-12-16T05:26:17.652Z,17.00
2022-12-16T05:27:38.156Z,17.27
2022-12-16T05:28:58.624Z,17.00
2022-12-16T05:30:18.983Z,18.33
2022-12-16T05:31:39.547Z,17.35
2022-12-16T05:32:59.877Z,18.50
2022-12-16T05:34:20.580Z,18.42
2022-12-16T05:35:41.208Z,18.73
2022-12-16T05:37:01.893Z,19.17
2022-12-16T05:38:18.746Z,18.33
2022-12-16T05:39:40.483Z,16.80
2022-12-16T05:41:01.096Z,16.80
2022-12-16T05:42:21.728Z,17.98
2022-12-16T05:43:42.316Z,17.40
2022-12-16T05:45:02.767Z,17.83
2022-12-16T05:46:23.436Z,17.83
2022-12-16T05:47:44.655Z,18.17
2022-12-16T05:49:05.074Z,16.52
2022-12-16T05:50:26.144Z,16.45
2022-12-16T05:51:46.653Z,19.20
2022-12-16T05:53:08.623Z,17.70
2022-12-16T05:54:29.105Z,17.35
2022-12-16T05:55:50.841Z,16.25
2022-12-16T05:57:11.387Z,16.77
2022-12-16T05:58:31.864Z,17.00
2022-12-16T05:59:52.519Z,16.15
2022-12-16T06:01:13.504Z,16.10
2022-12-16T06:02:34.222Z,17.27
2022-12-16T06:03:55.384Z,16.67
2022-12-16T06:05:15.743Z,16.98
2022-12-16T06:06:36.356Z,17.55
2022-12-16T06:07:56.827Z,16.55
2022-12-16T06:09:17.320Z,17.02
2022-12-16T06:10:37.872Z,15.57
2022-12-16T06:11:59.369Z,17.65
2022-12-16T06:13:19.783Z,15.65
2022-12-16T06:14:40.436Z,18.38
2022-12-16T06:16:06.764Z,17.83
2022-12-16T06:17:28.824Z,16.88
2022-12-16T06:18:49.390Z,18.45
2022-12-16T06:20:09.800Z,16.75
2022-12-16T06:21:30.399Z,17.63
2022-12-16T06:22:50.980Z,18.10
2022-12-16T06:24:11.548Z,17.52
2022-12-16T06:25:32.091Z,17.02
2022-12-16T06:26:52.668Z,17.40
2022-12-16T06:28:14.278Z,15.55
2022-12-16T06:29:34.847Z,17.48
2022-12-16T06:30:55.385Z,16.13
2022-12-16T06:32:16.120Z,18.92
2022-12-16T06:33:36.566Z,18.08
2022-12-16T06:34:57.088Z,17.77
2022-12-16T06:36:17.614Z,18.60
2022-12-16T06:37:38.255Z,16.77
2022-12-16T06:38:58.750Z,17.48
2022-12-16T06:40:18.973Z,16.30
2022-12-16T06:41:39.319Z,16.67
2022-12-16T06:42:59.797Z,17.40
2022-12-16T06:44:20.592Z,15.85
2022-12-16T06:45:40.967Z,17.13
2022-12-16T06:47:01.227Z,14.98
2022-12-16T06:48:21.887Z,15.75
2022-12-16T06:49:42.372Z,15.80
2022-12-16T06:51:02.655Z,17.35
2022-12-16T06:52:23.087Z,18.08
2022-12-16T06:53:43.837Z,16.85
2022-12-16T06:56:48.222Z,15.43
2022-12-16T06:58:15.028Z,16.55
2022-12-16T06:59:36.757Z,17.10
2022-12-16T07:00:57.237Z,17.80
2022-12-16T07:02:18.154Z,17.63
2022-12-16T07:03:38.383Z,18.65
2022-12-16T07:04:59.010Z,20.67
2022-12-16T07:06:19.600Z,16.55
2022-12-16T07:07:40.210Z,16.27
2022-12-16T07:09:00.570Z,16.98
2022-12-16T07:10:24.821Z,16.90
2022-12-16T07:11:45.365Z,17.08
2022-12-16T07:13:05.902Z,14.65
2022-12-16T07:14:26.483Z,16.25
2022-12-16T07:15:48.025Z,15.50
2022-12-16T07:17:12.337Z,15.35
2022-12-16T07:18:32.081Z,16.17
2022-12-16T07:19:52.609Z,15.60
2022-12-16T07:21:13.079Z,16.63
2022-12-16T07:22:33.600Z,15.55
2022-12-16T07:23:50.463Z,16.65
2022-12-16T07:25:11.122Z,15.82
2022-12-16T07:26:31.610Z,15.35
2022-12-16T07:29:42.761Z,15.88
2022-12-16T07:31:04.485Z,14.27
2022-12-16T07:32:25.023Z,16.50
2022-12-16T07:33:45.532Z,17.90
2022-12-16T07:35:05.985Z,15.85
2022-12-16T07:36:26.979Z,15.50
2022-12-16T07:37:47.323Z,15.85
2022-12-16T07:39:08.009Z,17.20
2022-12-16T07:40:29.713Z,14.55
2022-12-16T07:41:50.317Z,15.32
2022-12-16T07:43:09.752Z,15.48
2022-12-16T07:44:30.225Z,16.42
2022-12-16T07:45:51.281Z,16.90
2022-12-16T07:47:14.039Z,16.58
2022-12-16T07:48:34.495Z,16.67
2022-12-16T07:50:06.529Z,16.40
2022-12-16T07:51:27.048Z,15.60
2022-12-16T07:52:47.401Z,14.70
2022-12-16T07:54:19.357Z,14.95
2022-12-16T07:55:36.157Z,14.90
2022-12-16T07:56:56.534Z,14.95
2022-12-16T07:58:17.180Z,14.57
2022-12-16T07:59:38.019Z,14.32
2022-12-16T08:00:58.378Z,14.60
2022-12-16T08:02:20.355Z,13.57
2022-12-16T08:03:37.790Z,15.93
2022-12-16T08:04:58.534Z,14.07
2022-12-16T08:06:19.038Z,15.88
2022-12-16T08:07:39.408Z,15.50
2022-12-16T08:08:59.980Z,15.15
2022-12-16T08:10:20.558Z,13.25
2022-12-16T08:11:41.041Z,14.48
2022-12-16T08:13:01.399Z,15.13
2022-12-16T08:14:21.957Z,16.27
2022-12-16T08:15:42.511Z,14.95
2022-12-16T08:17:05.134Z,14.85
2022-12-16T08:18:27.196Z,16.95
2022-12-16T08:19:47.648Z,16.88
2022-12-16T08:21:08.060Z,13.63
2022-12-16T08:22:28.840Z,13.75
2022-12-16T08:23:49.357Z,13.63
2022-12-16T08:25:09.817Z,13.60
2022-12-16T08:26:30.687Z,14.63
2022-12-16T08:27:51.209Z,12.43
2022-12-16T08:29:41.997Z,15.05
2022-12-16T08:30:51.953Z,13.00
2022-12-16T08:32:12.875Z,14.25
2022-12-16T08:33:34.779Z,13.65
2022-12-16T08:34:55.517Z,14.68
2022-12-16T08:36:16.816Z,14.77
2022-12-16T08:37:37.355Z,13.65
2022-12-16T08:39:06.264Z,14.65
2022-12-16T08:40:35.433Z,11.85
2022-12-16T08:41:56.357Z,13.80
2022-12-16T08:43:16.809Z,14.90
2022-12-16T08:44:37.385Z,13.23
2022-12-16T08:45:57.892Z,13.90
2022-12-16T08:47:18.452Z,13.43
2022-12-16T08:48:40.104Z,14.35
2022-12-16T08:50:02.304Z,14.25
2022-12-16T08:51:24.845Z,13.60
2022-12-16T08:52:45.717Z,13.88
2022-12-16T08:54:06.233Z,12.85
2022-12-16T08:55:29.728Z,13.63
2022-12-16T08:56:50.527Z,13.15
2022-12-16T08:58:14.189Z,14.98
2022-12-16T08:59:34.561Z,13.98
2022-12-16T09:00:55.037Z,13.10
2022-12-16T09:02:15.980Z,12.90
2022-12-16T09:03:36.644Z,13.55
2022-12-16T09:04:59.121Z,12.25
2022-12-16T09:06:19.631Z,12.70
2022-12-16T09:07:40.201Z,12.68
2022-12-16T09:09:00.672Z,13.10
2022-12-16T09:10:21.171Z,13.77
2022-12-16T09:11:41.672Z,13.88
2022-12-16T09:13:02.337Z,13.68
2022-12-16T09:14:23.201Z,14.25
2022-12-16T09:15:43.900Z,14.45
2022-12-16T09:17:04.122Z,12.98
2022-12-16T09:18:24.588Z,13.35
2022-12-16T09:19:44.958Z,14.95
2022-12-16T09:21:06.625Z,13.63
2022-12-16T09:22:27.141Z,12.93
2022-12-16T09:23:47.604Z,11.93
2022-12-16T09:25:08.098Z,13.60
2022-12-16T09:26:43.585Z,13.38
2022-12-16T09:28:07.617Z,14.45
2022-12-16T09:29:29.488Z,13.07
2022-12-16T09:30:49.882Z,12.40
2022-12-16T09:32:11.745Z,12.75
2022-12-16T09:33:32.607Z,11.52
2022-12-16T09:35:01.652Z,12.65
2022-12-16T09:36:24.012Z,12.68
2022-12-16T09:37:44.406Z,12.57
2022-12-16T09:39:05.048Z,12.95
2022-12-16T09:40:27.919Z,14.65
2022-12-16T09:41:59.528Z,12.52
2022-12-16T09:43:27.019Z,13.52
2022-12-16T09:44:56.795Z,13.52
2022-12-16T09:46:36.100Z,11.70
2022-12-16T09:48:03.668Z,13.60
2022-12-16T09:49:36.101Z,13.50
2022-12-16T09:51:01.422Z,12.70
2022-12-16T09:52:27.463Z,14.52
2022-12-16T09:53:53.385Z,12.10
2022-12-16T09:55:13.908Z,12.50
2022-12-16T09:56:36.846Z,12.85
2022-12-16T09:58:02.580Z,11.90
2022-12-16T09:59:29.530Z,12.60
2022-12-16T10:00:50.836Z,12.68
2022-12-16T10:03:58.266Z,15.23
2022-12-16T10:05:19.579Z,16.75
2022-12-16T10:06:51.094Z,14.63
2022-12-16T10:08:21.827Z,12.63
2022-12-16T10:09:48.215Z,12.43
2022-12-16T10:11:18.747Z,11.00
2022-12-16T10:12:48.453Z,13.10
2022-12-16T10:14:19.295Z,12.25
2022-12-16T10:15:50.070Z,14.80
2022-12-16T10:17:19.344Z,13.60
2022-12-16T10:18:51.405Z,11.98
2022-12-16T10:20:18.749Z,12.55
2022-12-16T10:21:45.729Z,11.50
2022-12-16T10:23:11.577Z,13.50
2022-12-16T10:24:44.841Z,13.60
2022-12-16T10:26:09.905Z,12.85
2022-12-16T10:27:33.218Z,14.00
2022-12-16T10:29:03.709Z,12.70
2022-12-16T10:30:31.070Z,13.60
2022-12-16T10:31:52.723Z,10.05
2022-12-16T10:33:13.720Z,10.80
2022-12-16T10:34:45.673Z,11.52
2022-12-16T10:36:10.260Z,12.82
2022-12-16T10:37:34.740Z,12.60
2022-12-16T10:38:59.232Z,13.05
2022-12-16T10:40:23.133Z,13.57
2022-12-16T10:41:48.122Z,10.65
2022-12-16T10:43:16.592Z,10.70
2022-12-16T10:44:43.117Z,12.70
2022-12-16T10:46:07.531Z,13.40
2022-12-16T10:47:30.002Z,12.30
2022-12-16T10:48:57.090Z,11.38
2022-12-16T10:50:18.005Z,11.80
2022-12-16T10:51:40.577Z,12.02
2022-12-16T10:53:10.213Z,12.85
2022-12-16T10:54:50.767Z,11.68
2022-12-16T10:56:30.167Z,12.30
2022-12-16T10:58:16.241Z,12.80
2022-12-16T10:59:37.112Z,10.95
2022-12-16T11:01:00.046Z,12.50
2022-12-16T11:02:23.290Z,11.40
2022-12-16T11:03:45.695Z,10.85
2022-12-16T11:05:07.621Z,12.48
2022-12-16T11:06:29.559Z,11.70
2022-12-16T11:07:53.290Z,13.35
2022-12-16T11:09:13.602Z,12.00
2022-12-16T11:10:46.926Z,12.73
2022-12-16T11:12:22.980Z,12.10
2022-12-16T11:13:46.406Z,14.48
2022-12-16T11:15:28.713Z,14.10
2022-12-16T11:16:49.775Z,11.98
2022-12-16T11:18:21.841Z,12.65
2022-12-16T11:19:45.905Z,11.88
2022-12-16T11:21:24.004Z,11.10
2022-12-16T11:22:46.795Z,12.77
2022-12-16T11:24:22.952Z,12.30
2022-12-16T11:25:43.389Z,11.65
2022-12-16T11:27:13.031Z,13.93
2022-12-16T11:28:36.508Z,11.38
2022-12-16T11:30:09.093Z,12.65
2022-12-16T11:31:34.592Z,12.35
2022-12-16T11:32:57.041Z,11.27
2022-12-16T11:34:20.407Z,11.05
2022-12-16T11:35:44.988Z,13.23
2022-12-16T11:37:10.344Z,12.18
2022-12-16T11:38:42.312Z,10.80
2022-12-16T11:40:02.907Z,11.93
2022-12-16T11:41:24.864Z,11.25
2022-12-16T11:42:50.407Z,12.10
2022-12-16T11:44:12.432Z,12.45
2022-12-16T11:45:35.385Z,11.77
2022-12-16T11:46:56.128Z,11.18
2022-12-16T11:48:22.462Z,12.13
2022-12-16T11:49:48.126Z,9.88
2022-12-16T11:51:12.047Z,11.00
2022-12-16T11:52:37.530Z,12.70
2022-12-16T11:54:03.031Z,10.20
2022-12-16T11:56:03.355Z,11.98
2022-12-16T11:57:15.994Z,12.25
2022-12-16T11:58:44.621Z,11.68
2022-12-16T12:00:11.604Z,11.23
2022-12-16T12:01:44.731Z,12.40
2022-12-16T12:03:11.333Z,10.48
2022-12-16T12:04:44.691Z,11.88
2022-12-16T12:06:14.864Z,11.82
2022-12-16T12:07:58.233Z,13.35
2022-12-16T12:09:24.848Z,16.23
2022-12-16T12:11:08.880Z,11.15
2022-12-16T12:12:38.278Z,12.60
2022-12-16T12:14:10.470Z,14.40
2022-12-16T12:15:40.465Z,12.57
2022-12-16T12:17:14.409Z,11.52
2022-12-16T12:18:42.686Z,11.00
2022-12-16T12:20:17.724Z,10.15
2022-12-16T12:21:43.303Z,10.85
2022-12-16T12:23:01.398Z,9.95
2022-12-16T12:24:31.432Z,9.70
2022-12-16T12:26:02.486Z,10.88
2022-12-16T12:27:32.902Z,10.10
2022-12-16T12:29:06.696Z,11.52
2022-12-16T12:30:33.260Z,12.20
2022-12-16T12:32:03.720Z,10.00
2022-12-16T12:33:43.172Z,9.80
2022-12-16T12:35:12.345Z,10.20
2022-12-16T12:36:39.155Z,10.43
2022-12-16T12:38:04.251Z,9.90
2022-12-16T12:39:36.858Z,9.45
2022-12-16T12:41:09.128Z,9.18
2022-12-16T12:42:48.755Z,9.43
2022-12-16T12:44:20.709Z,9.98
2022-12-16T12:46:06.434Z,9.02
2022-12-16T12:47:30.359Z,8.60
2022-12-16T12:49:00.508Z,8.85
2022-12-16T12:50:27.359Z,9.43
2022-12-16T12:51:55.456Z,8.13
2022-12-16T12:53:33.693Z,9.80
2022-12-16T12:55:03.283Z,9.45
2022-12-16T12:56:30.159Z,8.20
2022-12-16T12:57:53.921Z,9.40
2022-12-16T12:59:33.509Z,9.90
2022-12-16T13:01:02.016Z,7.78
2022-12-16T13:02:24.664Z,8.88
2022-12-16T13:03:56.791Z,8.77
2022-12-16T13:05:24.026Z,8.73
2022-12-16T13:06:47.797Z,9.60
2022-12-16T13:08:08.368Z,10.43
2022-12-16T13:09:50.207Z,7.80
2022-12-16T13:11:35.004Z,7.05
2022-12-16T13:12:56.138Z,9.07
2022-12-16T13:14:16.652Z,9.38
2022-12-16T13:15:39.443Z,9.07
2022-12-16T13:17:36.516Z,7.90
2022-12-16T13:18:56.797Z,7.30
2022-12-16T13:20:17.509Z,7.95
2022-12-16T13:22:02.238Z,7.40
2022-12-16T13:23:47.696Z,7.43
2022-12-16T13:25:09.043Z,7.30
2022-12-16T13:26:29.661Z,7.65
2022-12-16T13:28:06.213Z,6.55
2022-12-16T13:29:37.873Z,6.40
2022-12-16T13:30:58.666Z,5.93
2022-12-16T13:32:33.132Z,5.78
2022-12-16T13:33:54.925Z,5.38
2022-12-16T13:35:19.812Z,6.13
2022-12-16T13:36:52.583Z,4.93
2022-12-16T13:38:15.344Z,5.65
2022-12-16T13:39:44.443Z,5.20
2022-12-16T13:41:11.519Z,5.03
2022-12-16T13:42:50.255Z,5.47
2022-12-16T13:44:12.333Z,5.05
2022-12-16T13:45:48.040Z,7.07
2022-12-16T13:47:10.621Z,5.55
2022-12-16T13:49:05.160Z,5.47
2022-12-16T13:50:54.460Z,6.03
2022-12-16T13:52:20.296Z,8.02
2022-12-16T13:53:43.667Z,5.65
2022-12-16T13:55:10.721Z,6.50
2022-12-16T13:56:46.001Z,5.50
2022-12-16T13:58:12.162Z,5.75
2022-12-16T13:59:37.104Z,6.50
2022-12-16T14:00:59.842Z,5.75
2022-12-16T14:02:32.327Z,5.45
2022-12-16T14:04:00.815Z,5.88
2022-12-16T14:05:23.320Z,7.78
2022-12-16T14:06:46.477Z,5.80
2022-12-16T14:08:07.942Z,5.80
2022-12-16T14:09:49.292Z,6.90
2022-12-16T14:11:19.155Z,6.88
2022-12-16T14:12:58.062Z,8.70
2022-12-16T14:14:38.056Z,6.45
2022-12-16T14:16:15.022Z,6.32
2022-12-16T14:17:42.656Z,6.30
2022-12-16T14:19:17.722Z,7.30
2022-12-16T14:20:47.077Z,5.95
2022-12-16T14:22:10.120Z,6.10
2022-12-16T14:23:59.573Z,5.95
2022-12-16T14:25:28.006Z,5.15
2022-12-16T14:26:48.584Z,5.63
2022-12-16T14:28:09.105Z,13.27
2022-12-16T14:29:38.636Z,16.70
2022-12-16T14:31:00.027Z,28.02
2022-12-16T14:32:20.755Z,44.47
2022-12-16T14:33:43.414Z,36.47
2022-12-16T14:35:03.945Z,50.25
2022-12-16T14:36:38.223Z,21.52
2022-12-16T14:37:58.663Z,27.55
2022-12-16T14:39:19.090Z,17.63
2022-12-16T14:40:41.658Z,11.98
2022-12-16T14:42:08.710Z,6.55
2022-12-16T14:43:31.949Z,5.50
2022-12-16T14:44:52.810Z,5.63
2022-12-16T14:46:13.293Z,5.70
2022-12-16T14:47:42.083Z,5.78
2022-12-16T14:49:05.954Z,5.22
2022-12-16T14:50:38.568Z,6.00
2022-12-16T14:52:05.990Z,6.43
2022-12-16T14:53:35.432Z,4.70
2022-12-16T14:54:58.129Z,5.85
2022-12-16T14:56:33.672Z,6.43
2022-12-16T14:57:54.222Z,4.45
2022-12-16T14:59:26.787Z,4.72
2022-12-16T15:00:58.921Z,4.90
2022-12-16T15:02:32.817Z,5.20
2022-12-16T15:03:58.849Z,6.55
2022-12-16T15:05:19.717Z,5.82
2022-12-16T15:06:43.671Z,6.80
2022-12-16T15:08:05.216Z,6.38
2022-12-16T15:09:31.324Z,5.72
2022-12-16T15:10:52.291Z,6.13
2022-12-16T15:12:15.328Z,6.15
2022-12-16T15:13:37.732Z,6.30
2022-12-16T15:15:00.995Z,6.82
2022-12-16T15:16:34.109Z,6.43
2022-12-16T15:18:02.777Z,8.35
2022-12-16T15:19:23.994Z,6.95
2022-12-16T15:20:47.037Z,7.03
2022-12-16T15:22:07.510Z,5.93
2022-12-16T15:23:37.598Z,7.50
2022-12-16T15:24:58.155Z,6.15
2022-12-16T15:26:18.792Z,6.50
2022-12-16T15:27:43.815Z,6.28
2022-12-16T15:29:04.303Z,7.45
2022-12-16T15:30:55.181Z,8.98
2022-12-16T15:32:15.747Z,9.02
2022-12-16T15:33:37.765Z,7.20
2022-12-16T15:35:05.914Z,6.43
2022-12-16T15:36:46.181Z,6.65
2022-12-16T15:38:06.587Z,7.57
2022-12-16T15:39:48.444Z,7.40
2022-12-16T15:41:10.131Z,8.13
2022-12-16T15:42:40.128Z,8.50
2022-12-16T15:44:03.653Z,7.05
2022-12-16T15:45:39.355Z,6.68
2022-12-16T15:47:06.975Z,7.18
2022-12-16T15:48:31.989Z,6.70
2022-12-16T15:49:59.189Z,6.75
2022-12-16T15:51:23.145Z,6.20
2022-12-16T15:52:55.242Z,7.45
2022-12-16T15:54:20.671Z,7.32
2022-12-16T15:55:45.727Z,20.10
2022-12-16T15:57:06.126Z,12.48
2022-12-16T15:58:32.022Z,7.57
2022-12-16T15:59:54.966Z,11.68
2022-12-16T16:01:16.630Z,14.43
2022-12-16T16:02:39.539Z,17.80
2022-12-16T16:04:07.676Z,21.17
2022-12-16T16:05:31.081Z,18.13
2022-12-16T16:06:51.684Z,15.80
2022-12-16T16:08:12.120Z,14.15
2022-12-16T16:09:34.259Z,11.18
2022-12-16T16:10:55.850Z,7.75
2022-12-16T16:12:15.644Z,6.88
2022-12-16T16:13:50.482Z,7.40
2022-12-16T16:15:10.979Z,6.78
2022-12-16T16:16:31.782Z,7.43
2022-12-16T16:17:52.622Z,5.95
2022-12-16T16:19:13.074Z,8.57
2022-12-16T16:20:35.468Z,37.47
2022-12-16T16:21:56.989Z,37.45
2022-12-16T16:23:17.541Z,28.08
2022-12-16T16:24:38.007Z,10.65
2022-12-16T16:26:03.794Z,8.07
2022-12-16T16:27:29.846Z,6.03
2022-12-16T16:28:50.372Z,6.47
2022-12-16T16:30:10.873Z,6.45
2022-12-16T16:31:31.246Z,6.88
2022-12-16T16:32:51.937Z,6.82
2022-12-16T16:34:12.501Z,5.90
2022-12-16T16:35:32.868Z,7.22
2022-12-16T16:36:53.364Z,6.60
2022-12-16T16:38:18.058Z,7.40
2022-12-16T16:39:38.984Z,6.20
2022-12-16T16:41:02.309Z,6.03
2022-12-16T16:42:22.755Z,6.90
2022-12-16T16:43:44.043Z,6.47
2022-12-16T16:45:04.563Z,5.80
2022-12-16T16:46:41.918Z,6.00
2022-12-16T16:48:02.292Z,6.38
2022-12-16T16:49:22.772Z,5.93
2022-12-16T16:50:43.148Z,6.18
2022-12-16T16:52:03.562Z,5.93
2022-12-16T16:53:23.994Z,5.55
2022-12-16T16:54:44.572Z,6.60
2022-12-16T16:56:15.179Z,6.57
2022-12-16T16:57:40.615Z,5.80
2022-12-16T16:59:00.959Z,5.63
2022-12-16T17:00:22.321Z,6.00
2022-12-16T17:03:06.471Z,6.68
2022-12-16T17:04:27.086Z,5.97
2022-12-16T17:05:59.304Z,5.68
2022-12-16T17:07:19.630Z,5.93
2022-12-16T17:08:39.929Z,6.65
2022-12-16T17:10:00.319Z,5.18
2022-12-16T17:11:21.968Z,5.95
2022-12-16T17:12:44.513Z,7.05
2022-12-16T17:14:05.013Z,6.50
2022-12-16T17:15:33.724Z,5.35